Main page
METAR-TAF:

METAR-TAF

Airports :

Cairo International Airport

Cairo, Egypt

latitude: 30-08N, longitude: 031-24E, elevation: 64 m

Current weather observation

The report was made 28 minutes ago, at 05:00 UTC
Wind 17 kt from the Northeast
Temperature 16°C
Humidity 72%
Pressure 1023 hPa
Visibility 10 km or more
no clouds below 1500 m and no cumulonimbus

METAR: HECA 240500Z 05017KT CAVOK 16/11 Q1023 NOSIG

Time: 07:28 (05:28 UTC)

Forecast

The report was made 6 hours and 28 minutes ago, at 23:00 UTC
Forecast valid from 24 at 00 UTC to 25 at 06 UTC
Wind 15 kt from the Northeast
Visibility 10 km or more
no clouds below 1500 m and no cumulonimbus

TAF: HECA 232300Z 2400/2506 05015KT CAVOK

Weather observations and forecasts of more than 4000 airports (METAR and TAF reports).

The available stations are represented by yellow and red dots on the map.

Hover mouse over dot to see the name of the station.

Then click to see weather observations and forecasts.

To change the map : click on the green buttons with a black cross to zoom in, on the green button with a dash to zoom out, or on the green arrows for adjacent maps.


METAR-TAF: